createdAt,value
2023-04-11T00:00:36.504Z,51.90
2023-04-11T00:03:13.949Z,52.10
2023-04-11T00:05:42.884Z,49.50
2023-04-11T00:08:10.987Z,48.70
2023-04-11T00:10:39.442Z,54.20
2023-04-11T00:13:07.722Z,52.00
2023-04-11T00:15:36.449Z,49.70
2023-04-11T00:18:06.737Z,46.00
2023-04-11T00:20:34.805Z,41.40
2023-04-11T00:23:02.906Z,41.80
2023-04-11T00:25:31.696Z,41.50
2023-04-11T00:28:00.048Z,43.70
2023-04-11T00:30:28.023Z,43.00
2023-04-11T00:32:56.220Z,44.10
2023-04-11T00:35:24.548Z,45.60
2023-04-11T00:37:56.310Z,47.10
2023-04-11T00:40:24.692Z,42.30
2023-04-11T00:42:52.699Z,43.00
2023-04-11T00:45:21.144Z,36.70
2023-04-11T00:47:51.049Z,44.60
2023-04-11T00:50:22.204Z,45.30
2023-04-11T00:52:50.396Z,44.70
2023-04-11T00:55:18.354Z,38.50
2023-04-11T00:57:46.613Z,37.10
2023-04-11T01:00:15.650Z,37.10
2023-04-11T01:02:43.843Z,35.50
2023-04-11T01:05:13.249Z,37.70
2023-04-11T01:07:44.069Z,35.50
2023-04-11T01:10:12.194Z,38.20
2023-04-11T01:12:40.362Z,31.90
2023-04-11T01:15:09.529Z,35.00
2023-04-11T01:17:37.973Z,33.10
2023-04-11T01:20:08.837Z,33.80
2023-04-11T01:22:37.568Z,33.30
2023-04-11T01:25:06.863Z,34.00
2023-04-11T01:27:35.147Z,29.90
2023-04-11T01:30:03.486Z,28.40
2023-04-11T01:32:31.723Z,28.00
2023-04-11T01:34:59.868Z,27.00
2023-04-11T01:37:28.004Z,27.80
2023-04-11T01:39:56.213Z,30.40
2023-04-11T01:42:24.594Z,32.30
2023-04-11T01:44:53.934Z,31.50
2023-04-11T01:47:22.651Z,34.20
2023-04-11T01:49:53.882Z,33.30
2023-04-11T01:52:21.995Z,39.70
2023-04-11T01:54:50.270Z,41.70
2023-04-11T01:57:18.278Z,46.00
2023-04-11T01:59:46.496Z,43.30
2023-04-11T02:02:14.841Z,50.80
2023-04-11T02:04:43.134Z,48.90
2023-04-11T02:07:12.308Z,52.20
2023-04-11T02:09:40.745Z,50.10
2023-04-11T02:12:08.921Z,53.10
2023-04-11T02:14:44.764Z,53.90
2023-04-11T02:17:14.349Z,57.20
2023-04-11T02:19:45.502Z,54.40
2023-04-11T02:22:16.046Z,51.20
2023-04-11T02:24:44.228Z,49.90
2023-04-11T02:27:12.596Z,48.30
2023-04-11T02:29:40.692Z,48.60
2023-04-11T02:32:10.140Z,48.10
2023-04-11T02:34:38.326Z,48.70
2023-04-11T02:37:06.729Z,44.40
2023-04-11T02:39:35.562Z,48.70
2023-04-11T02:42:03.795Z,48.80
2023-04-11T02:44:32.058Z,42.40
2023-04-11T02:47:01.059Z,40.50
2023-04-11T02:49:29.642Z,39.00
2023-04-11T02:51:58.242Z,36.40
2023-04-11T02:54:26.671Z,37.50
2023-04-11T02:56:56.774Z,30.50
2023-04-11T02:59:25.304Z,30.90
2023-04-11T03:02:00.299Z,29.40
2023-04-11T03:04:29.132Z,31.00
2023-04-11T03:07:08.178Z,34.50
2023-04-11T03:09:36.905Z,38.20
2023-04-11T03:12:05.239Z,31.50
2023-04-11T03:14:34.999Z,33.90
2023-04-11T03:17:03.191Z,37.00
2023-04-11T03:19:33.411Z,40.70
2023-04-11T03:22:02.349Z,39.20
2023-04-11T03:24:30.690Z,40.30
2023-04-11T03:26:58.965Z,44.20
2023-04-11T03:29:27.380Z,41.80
2023-04-11T03:32:06.462Z,42.90
2023-04-11T03:34:35.884Z,40.60
2023-04-11T03:37:06.006Z,39.10
2023-04-11T03:39:35.919Z,36.30
2023-04-11T03:42:04.600Z,42.20
2023-04-11T03:44:34.307Z,35.80
2023-04-11T03:47:02.989Z,32.80
2023-04-11T03:49:37.304Z,32.40
2023-04-11T03:52:11.739Z,31.00
2023-04-11T03:54:57.639Z,33.30
2023-04-11T03:57:30.720Z,32.70
2023-04-11T04:00:01.228Z,31.00
2023-04-11T04:02:30.322Z,33.70
2023-04-11T04:04:59.054Z,32.30
2023-04-11T04:07:35.473Z,30.90
2023-04-11T04:10:10.437Z,25.20
2023-04-11T04:12:40.428Z,30.10
2023-04-11T04:15:15.665Z,25.50
2023-04-11T04:17:46.553Z,26.60
2023-04-11T04:20:21.721Z,29.50
2023-04-11T04:22:54.134Z,26.70
2023-04-11T04:25:28.353Z,29.20
2023-04-11T04:27:58.409Z,40.80
2023-04-11T04:30:30.453Z,38.60
2023-04-11T04:33:14.774Z,35.20
2023-04-11T04:35:47.187Z,30.80
2023-04-11T04:38:19.623Z,30.00
2023-04-11T04:40:54.952Z,29.00
2023-04-11T04:43:27.453Z,38.50
2023-04-11T04:46:17.771Z,32.80
2023-04-11T04:48:50.496Z,33.80
2023-04-11T04:51:18.884Z,34.40
2023-04-11T04:53:49.112Z,30.60
2023-04-11T04:56:19.645Z,24.20
2023-04-11T04:58:48.421Z,20.60
2023-04-11T05:01:17.634Z,19.60
2023-04-11T05:03:50.862Z,17.30
2023-04-11T05:06:31.883Z,18.90
2023-04-11T05:09:02.553Z,19.80
2023-04-11T05:11:31.065Z,18.70
2023-04-11T05:13:59.290Z,20.30
2023-04-11T05:16:30.282Z,16.80
2023-04-11T05:18:58.786Z,16.40
2023-04-11T05:21:27.374Z,17.60
2023-04-11T05:23:56.564Z,17.50
2023-04-11T05:26:25.877Z,17.00
2023-04-11T05:28:55.479Z,17.20
2023-04-11T05:31:28.907Z,18.50
2023-04-11T05:33:58.216Z,16.90
2023-04-11T05:36:28.592Z,17.60
2023-04-11T05:38:56.790Z,15.80
2023-04-11T05:41:24.805Z,19.10
2023-04-11T05:43:52.850Z,17.80
2023-04-11T05:46:23.628Z,18.20
2023-04-11T05:48:51.830Z,15.70
2023-04-11T05:51:19.997Z,16.80
2023-04-11T05:53:48.268Z,18.00
2023-04-11T05:56:18.298Z,17.60
2023-04-11T05:58:46.197Z,18.60
2023-04-11T06:01:18.613Z,18.10
2023-04-11T06:03:47.298Z,16.30
2023-04-11T06:06:15.891Z,16.10
2023-04-11T06:08:44.385Z,14.90
2023-04-11T06:11:12.538Z,14.10
2023-04-11T06:13:40.748Z,16.40
2023-04-11T06:16:09.678Z,16.00
2023-04-11T06:18:38.207Z,17.40
2023-04-11T06:21:07.215Z,15.10
2023-04-11T06:23:35.059Z,14.40
2023-04-11T06:26:03.458Z,15.40
2023-04-11T06:28:33.748Z,14.40
2023-04-11T06:31:02.016Z,15.70
2023-04-11T06:33:30.077Z,16.40
2023-04-11T06:36:00.959Z,17.40
2023-04-11T06:38:29.093Z,18.10
2023-04-11T06:40:57.387Z,15.00
2023-04-11T06:43:25.464Z,16.60
2023-04-11T06:45:54.062Z,18.20
2023-04-11T06:48:21.936Z,18.70
2023-04-11T06:50:49.944Z,15.90
2023-04-11T06:53:17.756Z,17.30
2023-04-11T06:55:49.769Z,16.50
2023-04-11T06:58:17.623Z,15.00
2023-04-11T07:00:45.661Z,15.40
2023-04-11T07:03:14.301Z,14.20
2023-04-11T07:05:42.506Z,12.80
2023-04-11T07:08:10.889Z,13.30
2023-04-11T07:10:38.772Z,15.30
2023-04-11T07:13:06.745Z,16.40
2023-04-11T07:15:34.792Z,13.80
2023-04-11T07:18:05.095Z,13.60
2023-04-11T07:20:34.553Z,11.60
2023-04-11T07:23:03.600Z,13.10
2023-04-11T07:25:33.579Z,15.20
2023-04-11T07:28:01.592Z,9.80
2023-04-11T07:30:29.971Z,11.50
2023-04-11T07:32:57.919Z,10.20
2023-04-11T07:35:25.903Z,10.80
2023-04-11T07:37:57.679Z,10.90
2023-04-11T07:40:25.481Z,10.40
2023-04-11T07:42:53.417Z,10.40
2023-04-11T07:45:21.648Z,11.40
2023-04-11T07:47:52.403Z,10.90
2023-04-11T07:50:21.525Z,9.40
2023-04-11T07:52:56.029Z,11.30
2023-04-11T07:55:27.230Z,9.70
2023-04-11T07:57:55.237Z,7.80
2023-04-11T08:00:23.527Z,8.20
2023-04-11T08:02:52.597Z,12.00
2023-04-11T08:05:21.141Z,8.00
2023-04-11T08:07:49.361Z,7.50
2023-04-11T08:10:19.737Z,8.40
2023-04-11T08:12:47.704Z,6.80
2023-04-11T08:15:15.997Z,6.70
2023-04-11T08:17:45.619Z,7.30
2023-04-11T08:20:16.497Z,6.00
2023-04-11T08:22:46.862Z,7.00
2023-04-11T08:25:15.048Z,6.30
2023-04-11T08:27:42.988Z,6.80
2023-04-11T08:30:11.984Z,6.70
2023-04-11T08:32:41.043Z,9.20
2023-04-11T08:35:15.098Z,5.90
2023-04-11T08:37:45.680Z,5.90
2023-04-11T08:40:13.738Z,6.10
2023-04-11T08:42:47.472Z,5.60
2023-04-11T08:45:15.441Z,5.60
2023-04-11T08:47:45.468Z,5.00
2023-04-11T08:50:17.864Z,5.70
2023-04-11T08:52:47.951Z,6.10
2023-04-11T08:55:15.926Z,6.00
2023-04-11T08:57:44.062Z,5.60
2023-04-11T09:00:19.425Z,5.40
2023-04-11T09:02:57.628Z,5.90
2023-04-11T09:05:33.517Z,5.90
2023-04-11T09:08:16.105Z,5.10
2023-04-11T09:10:47.183Z,6.00
2023-04-11T09:13:28.817Z,6.00
2023-04-11T09:16:07.497Z,5.50
2023-04-11T09:18:44.918Z,8.60
2023-04-11T09:21:17.122Z,6.90
2023-04-11T09:23:45.359Z,5.10
2023-04-11T09:26:13.503Z,5.00
2023-04-11T09:28:44.322Z,6.20
2023-04-11T09:31:15.985Z,6.90
2023-04-11T09:34:02.841Z,6.90
2023-04-11T09:36:31.113Z,5.90
2023-04-11T09:38:59.535Z,8.20
2023-04-11T09:41:34.700Z,7.00
2023-04-11T09:44:02.888Z,6.50
2023-04-11T09:46:31.241Z,7.20
2023-04-11T09:49:01.900Z,6.30
2023-04-11T09:51:35.992Z,6.80
2023-04-11T09:54:12.103Z,6.70
2023-04-11T09:56:41.453Z,7.10
2023-04-11T09:59:22.676Z,6.70
2023-04-11T10:02:00.974Z,8.00
2023-04-11T10:04:47.831Z,8.10
2023-04-11T10:07:21.823Z,6.60
2023-04-11T10:09:53.017Z,7.00
2023-04-11T10:12:35.334Z,6.60
2023-04-11T10:15:09.270Z,6.20
2023-04-11T10:17:41.230Z,6.30
2023-04-11T10:20:45.046Z,5.70
2023-04-11T10:23:19.660Z,5.10
2023-04-11T10:26:17.840Z,5.50
2023-04-11T10:28:51.640Z,5.20
2023-04-11T10:31:20.854Z,5.20
2023-04-11T10:34:18.190Z,4.50
2023-04-11T10:37:07.825Z,5.40
2023-04-11T10:39:55.026Z,5.10
2023-04-11T10:42:34.688Z,5.30
2023-04-11T10:45:30.452Z,5.70
2023-04-11T10:48:13.102Z,5.30
2023-04-11T10:54:26.017Z,4.70
2023-04-11T10:56:55.233Z,7.00
2023-04-11T10:59:32.384Z,6.70
2023-04-11T11:02:01.769Z,5.40
2023-04-11T11:04:35.219Z,6.10
2023-04-11T11:07:22.860Z,4.80
2023-04-11T11:09:51.509Z,5.60
2023-04-11T11:12:24.691Z,4.80
2023-04-11T11:14:57.825Z,4.90
2023-04-11T11:17:28.333Z,5.60
2023-04-11T11:19:58.754Z,4.90
2023-04-11T11:22:29.992Z,5.60
2023-04-11T11:25:08.744Z,6.60
2023-04-11T11:27:39.163Z,5.00
2023-04-11T11:30:13.953Z,5.30
2023-04-11T11:32:47.423Z,5.10
2023-04-11T11:35:22.088Z,5.30
2023-04-11T11:37:54.099Z,6.00
2023-04-11T11:40:24.543Z,5.50
2023-04-11T11:42:55.055Z,4.70
2023-04-11T11:45:26.898Z,5.10
2023-04-11T11:48:25.627Z,5.40
2023-04-11T11:51:00.987Z,5.40
2023-04-11T11:53:31.520Z,5.10
2023-04-11T11:56:02.482Z,6.50
2023-04-11T11:58:43.500Z,6.10
2023-04-11T12:01:16.387Z,6.60
2023-04-11T12:03:45.008Z,5.90
2023-04-11T12:06:13.692Z,6.70
2023-04-11T12:08:45.769Z,6.40
2023-04-11T12:11:19.199Z,6.40
2023-04-11T12:13:52.673Z,8.10
2023-04-11T12:16:27.147Z,6.50
2023-04-11T12:19:00.062Z,6.00
2023-04-11T12:21:31.550Z,8.00
2023-04-11T12:23:59.590Z,6.90
2023-04-11T12:26:31.937Z,5.80
2023-04-11T12:29:02.475Z,5.10
2023-04-11T12:31:38.464Z,6.40
2023-04-11T12:34:08.427Z,5.60
2023-04-11T12:36:38.924Z,6.10
2023-04-11T12:39:07.453Z,5.80
2023-04-11T12:41:36.033Z,4.90
2023-04-11T12:44:06.290Z,6.20
2023-04-11T12:46:34.470Z,6.00
2023-04-11T12:49:03.530Z,6.20
2023-04-11T12:51:34.359Z,5.70
2023-04-11T12:54:02.834Z,5.90
2023-04-11T12:56:36.348Z,5.90
2023-04-11T12:59:08.108Z,6.80
2023-04-11T13:01:37.347Z,6.70
2023-04-11T13:04:07.506Z,5.90
2023-04-11T13:06:39.045Z,6.10
2023-04-11T13:09:16.678Z,6.60
2023-04-11T13:11:47.427Z,6.50
2023-04-11T13:14:16.675Z,7.40
2023-04-11T13:16:48.528Z,6.10
2023-04-11T13:19:16.734Z,6.50
2023-04-11T13:21:45.124Z,6.50
2023-04-11T13:24:13.520Z,6.80
2023-04-11T13:26:41.615Z,5.90
2023-04-11T13:29:09.555Z,8.70
2023-04-11T13:31:37.886Z,5.80
2023-04-11T13:34:07.035Z,6.70
2023-04-11T13:36:35.951Z,6.80
2023-04-11T13:39:05.839Z,7.00
2023-04-11T13:41:33.991Z,7.80
2023-04-11T13:44:01.706Z,7.20
2023-04-11T13:46:30.714Z,7.00
2023-04-11T13:48:58.686Z,9.70
2023-04-11T13:51:27.600Z,7.00
2023-04-11T13:53:56.035Z,6.60
2023-04-11T13:56:23.874Z,6.90
2023-04-11T13:58:52.028Z,6.70
2023-04-11T14:01:20.258Z,6.50
2023-04-11T14:03:49.737Z,6.20
2023-04-11T14:06:19.472Z,6.80
2023-04-11T14:08:49.182Z,6.30
2023-04-11T14:11:17.761Z,6.30
2023-04-11T14:13:45.684Z,6.00
2023-04-11T14:16:13.657Z,7.30
2023-04-11T14:18:42.426Z,6.80
2023-04-11T14:21:10.110Z,8.10
2023-04-11T14:23:38.058Z,6.60
2023-04-11T14:26:06.610Z,5.70
2023-04-11T14:28:35.220Z,6.90
2023-04-11T14:31:03.299Z,7.70
2023-04-11T14:33:31.964Z,7.10
2023-04-11T14:35:59.781Z,8.90
2023-04-11T14:38:27.786Z,7.30
2023-04-11T14:40:55.650Z,7.30
2023-04-11T14:43:23.656Z,7.30
2023-04-11T14:45:59.272Z,6.30
2023-04-11T14:48:30.761Z,8.00
2023-04-11T14:51:03.354Z,8.30
2023-04-11T14:53:31.863Z,7.00
2023-04-11T14:55:59.797Z,7.50
2023-04-11T14:58:27.705Z,7.80
2023-04-11T15:00:56.044Z,8.90
2023-04-11T15:03:24.677Z,7.10
2023-04-11T15:05:52.629Z,7.70
2023-04-11T15:08:21.053Z,8.60
2023-04-11T15:10:54.184Z,8.90
2023-04-11T15:13:22.606Z,7.20
2023-04-11T15:15:51.477Z,8.60
2023-04-11T15:18:21.501Z,11.00
2023-04-11T15:20:50.129Z,7.60
2023-04-11T15:23:19.211Z,9.10
2023-04-11T15:25:57.602Z,8.20
2023-04-11T15:28:26.796Z,8.10
2023-04-11T15:30:55.502Z,8.70
2023-04-11T15:33:24.446Z,7.20
2023-04-11T15:35:57.257Z,7.20
2023-04-11T15:38:27.272Z,8.30
2023-04-11T15:40:58.757Z,8.40
2023-04-11T15:43:27.330Z,8.00
2023-04-11T15:45:55.409Z,8.80
2023-04-11T15:48:23.312Z,9.70
2023-04-11T15:50:51.340Z,9.50
2023-04-11T15:53:19.306Z,9.10
2023-04-11T15:55:47.457Z,10.40
2023-04-11T15:58:15.474Z,9.80
2023-04-11T16:00:43.874Z,10.20
2023-04-11T16:03:12.062Z,11.80
2023-04-11T16:05:43.027Z,9.80
2023-04-11T16:08:11.050Z,10.90
2023-04-11T16:10:38.997Z,10.50
2023-04-11T16:13:07.143Z,10.90
2023-04-11T16:15:35.057Z,9.70
2023-04-11T16:18:03.154Z,10.80
2023-04-11T16:20:33.360Z,10.40
2023-04-11T16:23:01.241Z,10.50
2023-04-11T16:25:29.530Z,11.80
2023-04-11T16:27:57.948Z,17.40
2023-04-11T16:30:28.024Z,15.40
2023-04-11T16:32:56.624Z,13.90
2023-04-11T16:35:24.984Z,9.80
2023-04-11T16:37:53.102Z,9.80
2023-04-11T16:40:21.199Z,7.80
2023-04-11T16:42:49.391Z,8.40
2023-04-11T16:45:17.181Z,12.00
2023-04-11T16:47:45.735Z,12.70
2023-04-11T16:50:14.858Z,10.80
2023-04-11T16:52:43.281Z,11.90
2023-04-11T16:55:11.952Z,17.60
2023-04-11T16:57:39.897Z,15.60
2023-04-11T17:00:15.546Z,15.80
2023-04-11T17:02:43.667Z,12.20
2023-04-11T17:05:12.742Z,11.20
2023-04-11T17:07:42.062Z,13.00
2023-04-11T17:10:10.218Z,10.80
2023-04-11T17:12:38.004Z,17.30
2023-04-11T17:15:09.054Z,18.60
2023-04-11T17:17:37.351Z,17.50
2023-04-11T17:20:09.703Z,16.60
2023-04-11T17:22:41.497Z,17.50
2023-04-11T17:25:10.706Z,16.10
2023-04-11T17:27:40.690Z,14.10
2023-04-11T17:30:09.919Z,14.80
2023-04-11T17:32:39.146Z,14.00
2023-04-11T17:35:07.499Z,13.00
2023-04-11T17:37:36.108Z,14.20
2023-04-11T17:40:12.766Z,15.50
2023-04-11T17:42:41.554Z,13.00
2023-04-11T17:47:44.720Z,13.10
2023-04-11T17:50:13.193Z,11.40
2023-04-11T17:52:44.453Z,12.40
2023-04-11T17:55:17.404Z,12.00
2023-04-11T17:57:51.327Z,14.00
2023-04-11T18:00:24.082Z,10.60
2023-04-11T18:02:59.409Z,10.70
2023-04-11T18:05:31.046Z,11.90
2023-04-11T18:07:59.799Z,12.10
2023-04-11T18:10:28.243Z,12.30
2023-04-11T18:12:57.613Z,12.80
2023-04-11T18:15:26.384Z,15.00
2023-04-11T18:17:54.942Z,14.70
2023-04-11T18:20:23.304Z,14.40
2023-04-11T18:22:54.876Z,13.00
2023-04-11T18:25:23.808Z,15.20
2023-04-11T18:27:51.966Z,16.30
2023-04-11T18:30:20.461Z,13.30
2023-04-11T18:32:50.946Z,13.00
2023-04-11T18:35:19.605Z,16.40
2023-04-11T18:37:47.888Z,15.40
2023-04-11T18:40:16.512Z,16.70
2023-04-11T18:42:48.891Z,16.90
2023-04-11T18:45:18.119Z,14.60
2023-04-11T18:47:46.795Z,15.80
2023-04-11T18:50:15.936Z,18.20
2023-04-11T18:52:45.441Z,14.60
2023-04-11T18:55:14.594Z,30.60
2023-04-11T18:57:46.655Z,23.20
2023-04-11T19:00:18.989Z,16.00
2023-04-11T19:02:50.320Z,16.80
2023-04-11T19:05:19.241Z,15.40
2023-04-11T19:07:47.587Z,10.50
2023-04-11T19:10:16.084Z,12.50
2023-04-11T19:12:44.424Z,11.60
2023-04-11T19:15:13.008Z,9.30
2023-04-11T19:17:41.389Z,10.00
2023-04-11T19:20:13.547Z,10.90
2023-04-11T19:22:41.976Z,12.10
2023-04-11T19:25:11.350Z,11.30
2023-04-11T19:27:42.017Z,10.90
2023-04-11T19:30:13.487Z,11.30
2023-04-11T19:32:44.098Z,10.90
2023-04-11T19:35:12.686Z,11.80
2023-04-11T19:37:41.196Z,11.60
2023-04-11T19:40:11.242Z,16.70
2023-04-11T19:42:40.413Z,13.30
2023-04-11T19:45:09.998Z,10.30
2023-04-11T19:47:40.366Z,11.90
2023-04-11T19:50:13.031Z,8.90
2023-04-11T19:52:42.575Z,8.90
2023-04-11T19:55:11.656Z,9.00
2023-04-11T19:57:40.389Z,9.70
2023-04-11T20:00:14.457Z,9.20
2023-04-11T20:02:44.979Z,9.50
2023-04-11T20:05:21.736Z,9.80
2023-04-11T20:07:49.828Z,9.40
2023-04-11T20:10:17.761Z,8.50
2023-04-11T20:12:45.925Z,9.70
2023-04-11T20:15:14.867Z,10.50
2023-04-11T20:17:45.287Z,11.50
2023-04-11T20:20:15.856Z,9.00
2023-04-11T20:22:45.064Z,10.00
2023-04-11T20:25:13.138Z,8.80
2023-04-11T20:27:42.550Z,7.20
2023-04-11T20:30:12.195Z,6.30
2023-04-11T20:32:40.526Z,7.30
2023-04-11T20:35:10.206Z,5.10
2023-04-11T20:37:40.213Z,5.00
2023-04-11T20:40:10.219Z,4.30
2023-04-11T20:42:46.139Z,5.00
2023-04-11T20:45:16.420Z,6.80
2023-04-11T20:47:46.711Z,6.10
2023-04-11T20:50:15.955Z,7.60
2023-04-11T20:52:45.978Z,6.00
2023-04-11T20:55:14.659Z,5.30
2023-04-11T20:57:42.490Z,5.80
2023-04-11T21:00:15.012Z,5.10
2023-04-11T21:02:45.875Z,6.60
2023-04-11T21:05:14.010Z,6.60
2023-04-11T21:07:42.321Z,5.00
2023-04-11T21:10:10.904Z,6.80
2023-04-11T21:12:38.843Z,6.40
2023-04-11T21:15:08.703Z,7.10
2023-04-11T21:17:37.409Z,7.40
2023-04-11T21:20:17.874Z,6.50
2023-04-11T21:22:54.917Z,6.60
2023-04-11T21:25:23.374Z,10.60
2023-04-11T21:27:51.231Z,7.60
2023-04-11T21:30:19.033Z,7.70
2023-04-11T21:32:46.928Z,8.40
2023-04-11T21:35:14.927Z,7.10
2023-04-11T21:37:42.852Z,8.90
2023-04-11T21:40:12.786Z,8.90
2023-04-11T21:42:41.015Z,9.40
2023-04-11T21:45:08.922Z,8.10
2023-04-11T21:47:37.076Z,8.40
2023-04-11T21:50:06.008Z,8.80
2023-04-11T21:52:33.747Z,9.70
2023-04-11T21:55:01.570Z,8.50
2023-04-11T21:57:33.838Z,10.40
2023-04-11T22:00:01.685Z,10.30
2023-04-11T22:02:40.231Z,11.80
2023-04-11T22:05:12.548Z,11.60
2023-04-11T22:07:46.539Z,11.00
2023-04-11T22:10:15.387Z,9.70
2023-04-11T22:12:45.907Z,10.30
2023-04-11T22:15:14.340Z,10.90
2023-04-11T22:17:43.831Z,11.50
2023-04-11T22:20:12.556Z,8.60
2023-04-11T22:22:40.456Z,11.90
2023-04-11T22:25:10.039Z,10.00
2023-04-11T22:27:38.543Z,14.60
2023-04-11T22:30:08.838Z,13.20
2023-04-11T22:32:37.393Z,13.90
2023-04-11T22:35:06.848Z,14.40
2023-04-11T22:37:55.612Z,16.90
2023-04-11T22:40:24.276Z,17.20
2023-04-11T22:42:52.453Z,18.30
2023-04-11T22:45:21.858Z,18.80
2023-04-11T22:47:54.445Z,18.50
2023-04-11T22:50:23.111Z,18.80
2023-04-11T22:52:51.010Z,15.10
2023-04-11T22:55:21.362Z,16.90
2023-04-11T22:57:49.547Z,19.20
2023-04-11T23:00:18.846Z,18.40
2023-04-11T23:02:47.259Z,18.80
2023-04-11T23:05:16.873Z,21.10
2023-04-11T23:07:44.783Z,19.20
2023-04-11T23:10:15.143Z,22.90
2023-04-11T23:12:44.434Z,24.20
2023-04-11T23:15:12.582Z,21.80
2023-04-11T23:17:41.538Z,22.70
2023-04-11T23:20:11.227Z,23.00
2023-04-11T23:22:42.265Z,18.80
2023-04-11T23:25:14.166Z,24.90
2023-04-11T23:31:08.068Z,25.10
2023-04-11T23:33:36.074Z,26.40
2023-04-11T23:36:04.988Z,26.80
2023-04-11T23:38:32.870Z,25.60
2023-04-11T23:41:00.695Z,23.50
2023-04-11T23:43:28.530Z,25.70
2023-04-11T23:45:56.744Z,27.90
2023-04-11T23:48:24.793Z,25.80
2023-04-11T23:50:52.542Z,31.10
2023-04-11T23:53:20.777Z,29.60
2023-04-11T23:55:48.695Z,28.70
2023-04-11T23:58:16.408Z,29.50
